Airfield :
LOGIN :

Register | Disclaimer

   EN    FR    IT 

 










Legend :    VFR   Marginal VFR   IFR   Intensive IFR   Very Intensive IFR
Visi :
Ceiling :
>= 8 km
>= 3000ft
5 to 8 km
1000 to 3000 ft
1500m to 5 km
500 to 1000 ft
800 to 1500m
200 to 500 ft
< 800m
< 200 ft
Symbols :   Thunderstorms  Fog  Heavy snow  Heavy precipitations  Wind > 20 kt
SIGMETs :     Misc.  Thunderstorms  Icing  Turbulence  Mountain Waves  Volcanic Ashes






- Airport Elevation : 1249 ft


ETSN - Neuburg AB

CURRENT METAR :
  • 180320Z 26007KT 9999 FEW019 BKN050 05/04 Q1024 BLU

EXPIRED METARs :
  • 180220Z 27004KT 7000 FEW022 BKN055 05/04 Q1023 WHT
  • 180146Z 30003KT 7000 -RA FEW018 BKN048 04/04 Q1023 WHT
  • 180120Z 25004KT 8000 FEW025 BKN055 05/04 Q1022 BLU

TAF TAF ETSN
Valid from the 18 at 03:00 until the 18 at 12:00 UTC


180205Z 1803/1812 VRB03KT 9999 NSW FEW020 BKN040
TEMPO 1803/1812 25007KT 4000 -RA BKN010 BKN030 BY ETGL



MET'MAP, your aeronautical weather chart ! - Copyright ORBIFLY December 2007 - Disclaimer

ORBIFLY MET'MAP TEAM :

Programming & Development : Alexandra Zaïnal
Concept & original design : Baudouin d'Aumeries
Assistance for programming : Marc-Olivier Méhu
Technical & hardware support : Manuel Goepfert

Contact : metmap@orbifly.com




SOURCES & CREDITS :

   NOAA